Time;durP1;ratioP1;P1;durP2;ratioP2;P2;SDS_P1;SDS_P2;PMS_P1;PMS_P2;Temp;Humidity;BMP_temperature;BMP_pressure;BME280_temperature;BME280_humidity;BME280_pressure;Samples;Min_cycle;Max_cycle;Signal;HPM_P1;HPM_P2
2021/08/12 00:01:26;;;;;;;4.63;3.33;;;16.00;99.90;;;;;;5009863;28;20050;-79
2021/08/12 00:03:57;;;;;;;4.82;3.05;;;16.00;99.90;;;;;;5009700;28;20050;-79
2021/08/12 00:06:25;;;;;;;3.45;3.03;;;16.00;99.90;;;;;;5009792;28;20049;-79
2021/08/12 00:08:53;;;;;;;4.57;3.70;;;15.90;99.90;;;;;;5009759;28;20050;-79
2021/08/12 00:11:21;;;;;;;6.63;3.05;;;15.90;99.90;;;;;;4991351;28;20494;-79
2021/08/12 00:13:49;;;;;;;3.67;3.35;;;15.90;99.90;;;;;;5009822;28;20049;-79
2021/08/12 00:16:16;;;;;;;3.97;3.58;;;15.90;99.90;;;;;;5009392;28;20061;-79
2021/08/12 00:18:44;;;;;;;3.42;2.55;;;15.90;99.90;;;;;;5018248;28;20054;-79
2021/08/12 00:21:12;;;;;;;4.47;3.03;;;15.90;99.90;;;;;;5028923;28;20041;-79
2021/08/12 00:23:40;;;;;;;3.55;3.25;;;15.80;99.90;;;;;;5028932;28;20054;-78
2021/08/12 00:26:07;;;;;;;7.10;4.43;;;15.70;99.90;;;;;;5029936;28;20052;-79
2021/08/12 00:28:35;;;;;;;8.13;3.80;;;15.60;99.90;;;;;;5029199;28;20407;-79
2021/08/12 00:31:03;;;;;;;14.18;4.07;;;15.50;99.90;;;;;;5027955;28;20482;-79
2021/08/12 00:33:33;;;;;;;5.70;3.50;;;15.60;99.90;;;;;;5028430;28;20068;-79
2021/08/12 00:36:02;;;;;;;5.63;3.50;;;15.50;99.90;;;;;;5027848;28;20053;-79
2021/08/12 00:38:31;;;;;;;6.32;4.80;;;15.50;99.90;;;;;;5028138;28;20794;-79
2021/08/12 00:41:01;;;;;;;6.50;4.30;;;15.50;99.90;;;;;;5025335;28;20049;-79
2021/08/12 00:43:31;;;;;;;3.58;3.28;;;15.50;99.90;;;;;;5007963;28;20064;-79
2021/08/12 00:45:58;;;;;;;13.40;3.60;;;15.50;99.90;;;;;;5008332;28;20213;-77
2021/08/12 00:48:26;;;;;;;4.95;3.55;;;15.40;99.90;;;;;;5007869;28;20482;-77
2021/08/12 00:50:55;;;;;;;5.43;3.33;;;15.40;99.90;;;;;;4990984;28;20050;-80
2021/08/12 00:53:23;;;;;;;3.95;3.47;;;15.30;99.90;;;;;;4992241;28;20076;-83
2021/08/12 00:55:52;;;;;;;5.55;3.80;;;15.40;99.90;;;;;;5008236;28;20065;-83
2021/08/12 00:58:20;;;;;;;5.05;3.05;;;15.40;99.90;;;;;;5004883;28;20042;-84
2021/08/12 01:00:51;;;;;;;3.95;3.10;;;15.20;99.90;;;;;;4988440;28;20538;-84
2021/08/12 01:03:24;;;;;;;6.15;4.78;;;15.20;99.90;;;;;;4991218;28;20039;-84
2021/08/12 01:05:54;;;;;;;5.63;3.63;;;15.20;99.90;;;;;;4992421;28;20057;-84
2021/08/12 01:08:54;;;;;;;7.32;4.75;;;15.20;99.90;;;;;;4991982;28;20059;-84
2021/08/12 01:11:35;;;;;;;3.58;3.25;;;15.20;99.90;;;;;;4997883;28;20046;-84
2021/08/12 01:14:22;;;;;;;5.00;4.45;;;15.20;99.90;;;;;;5012215;28;20057;-84
2021/08/12 01:17:05;;;;;;;3.45;3.15;;;15.10;99.90;;;;;;5011509;28;20041;-84
2021/08/12 01:20:05;;;;;;;4.10;3.72;;;15.00;99.90;;;;;;5011335;28;20406;-84
2021/08/12 01:22:46;;;;;;;3.22;2.60;;;15.00;99.90;;;;;;4995607;28;20076;-84
2021/08/12 01:25:27;;;;;;;3.97;3.30;;;15.00;99.90;;;;;;5012706;28;20069;-83
2021/08/12 01:28:02;;;;;;;9.00;3.70;;;15.10;99.90;;;;;;5011102;28;20054;-84
2021/08/12 01:30:42;;;;;;;3.80;3.05;;;15.10;99.90;;;;;;5012406;28;20050;-84
2021/08/12 01:33:42;;;;;;;9.60;5.55;;;15.10;99.90;;;;;;5011321;28;20061;-84
2021/08/12 01:36:13;;;;;;;11.50;5.50;;;15.10;99.90;;;;;;5010933;28;20049;-84
2021/08/12 01:38:45;;;;;;;5.88;4.72;;;15.20;99.90;;;;;;5011366;28;20053;-84
2021/08/12 01:41:13;;;;;;;8.10;5.15;;;15.20;99.90;;;;;;5010698;28;20403;-84
2021/08/12 01:43:42;;;;;;;3.67;3.33;;;15.20;99.90;;;;;;5011157;28;20839;-84
2021/08/12 01:46:11;;;;;;;7.15;4.30;;;15.30;99.90;;;;;;5011149;28;20042;-84
2021/08/12 01:48:41;;;;;;;4.57;4.15;;;15.30;99.90;;;;;;5011117;28;20403;-84
2021/08/12 01:51:14;;;;;;;3.92;3.63;;;15.30;99.90;;;;;;5011773;28;20529;-84
2021/08/12 01:53:42;;;;;;;5.32;3.72;;;15.20;99.90;;;;;;5012795;28;20049;-84
2021/08/12 01:56:10;;;;;;;4.30;3.92;;;15.10;99.90;;;;;;5011097;28;20064;-84
2021/08/12 01:58:38;;;;;;;7.63;4.60;;;15.10;99.90;;;;;;4993690;28;20061;-84
2021/08/12 02:01:06;;;;;;;8.07;4.22;;;15.10;99.90;;;;;;5007728;28;20060;-84
2021/08/12 02:03:35;;;;;;;4.10;3.70;;;15.10;99.90;;;;;;5011558;28;20046;-84
2021/08/12 02:06:04;;;;;;;4.88;3.47;;;15.10;99.90;;;;;;4994787;28;20053;-84
2021/08/12 02:08:31;;;;;;;5.97;5.32;;;15.00;99.90;;;;;;5010627;28;20069;-83
2021/08/12 02:11:00;;;;;;;7.75;5.40;;;14.90;99.90;;;;;;5010083;28;20052;-79
2021/08/12 02:13:30;;;;;;;9.18;4.93;;;14.90;99.90;;;;;;5010309;28;20061;-80
2021/08/12 02:15:58;;;;;;;5.25;3.72;;;14.90;99.90;;;;;;5011778;28;20395;-80
2021/08/12 02:18:26;;;;;;;10.27;6.43;;;14.90;99.90;;;;;;5017331;28;20681;-79
2021/08/12 02:21:02;;;;;;;9.45;5.05;;;14.80;99.90;;;;;;5028846;28;20049;-79
2021/08/12 02:23:36;;;;;;;4.20;3.45;;;14.80;99.90;;;;;;5031318;28;20505;-79
2021/08/12 02:26:09;;;;;;;6.47;5.40;;;14.80;99.90;;;;;;5030392;28;20505;-79
2021/08/12 02:28:41;;;;;;;5.63;5.05;;;14.80;99.90;;;;;;5012745;28;20061;-80
2021/08/12 02:31:11;;;;;;;4.00;3.60;;;14.80;99.90;;;;;;5030955;28;20045;-79
2021/08/12 02:33:40;;;;;;;7.97;5.75;;;14.80;99.90;;;;;;5030592;28;20046;-79
2021/08/12 02:36:10;;;;;;;26.83;7.93;;;14.80;99.90;;;;;;5030906;28;20068;-79
2021/08/12 02:38:43;;;;;;;7.28;4.70;;;14.80;99.90;;;;;;5030294;28;20052;-79
2021/08/12 02:41:20;;;;;;;10.32;5.22;;;14.90;99.90;;;;;;5025438;28;20049;-80
2021/08/12 02:43:53;;;;;;;4.88;4.38;;;14.90;99.90;;;;;;5009885;28;20553;-79
2021/08/12 02:46:25;;;;;;;8.70;4.53;;;14.90;99.90;;;;;;5010236;28;20042;-80
2021/08/12 02:48:57;;;;;;;4.78;4.32;;;14.90;99.90;;;;;;5009806;28;20057;-79
2021/08/12 02:51:27;;;;;;;6.80;4.90;;;14.90;99.90;;;;;;5008317;28;20376;-79
2021/08/12 02:53:56;;;;;;;13.35;5.15;;;14.80;99.90;;;;;;5010301;28;20050;-79
2021/08/12 02:56:25;;;;;;;8.93;5.55;;;14.70;99.90;;;;;;5009114;28;20483;-79
2021/08/12 02:58:55;;;;;;;5.68;3.70;;;14.70;99.90;;;;;;5010928;28;20393;-80
2021/08/12 03:01:24;;;;;;;6.85;3.92;;;14.70;99.90;;;;;;5009728;28;20056;-79
2021/08/12 03:03:53;;;;;;;4.75;4.30;;;14.70;99.90;;;;;;5009195;28;20368;-79
2021/08/12 03:06:22;;;;;;;6.13;4.55;;;14.60;99.90;;;;;;5010613;28;20487;-80
2021/08/12 03:08:53;;;;;;;8.32;4.93;;;14.60;99.90;;;;;;4993236;28;20049;-79
2021/08/12 03:11:22;;;;;;;5.43;3.80;;;14.50;99.90;;;;;;4993172;28;20042;-79
2021/08/12 03:13:53;;;;;;;;;;;14.50;99.90;;;;;;5004277;28;20042;-79
2021/08/12 03:16:22;;;;;;;4.95;4.25;;;14.40;99.90;;;;;;4989552;28;19952;-79
2021/08/12 03:18:50;;;;;;;7.05;5.13;;;14.40;99.90;;;;;;5009346;28;20042;-79
2021/08/12 03:21:17;;;;;;;7.03;5.10;;;14.50;99.90;;;;;;5028300;28;20049;-79
2021/08/12 03:23:45;;;;;;;7.18;6.47;;;14.50;99.90;;;;;;5029229;28;20048;-80
2021/08/12 03:26:14;;;;;;;9.30;5.47;;;14.50;99.90;;;;;;5028885;28;20086;-80
2021/08/12 03:28:42;;;;;;;5.78;4.90;;;14.50;99.90;;;;;;5012533;28;20045;-79
2021/08/12 03:31:10;;;;;;;10.30;5.75;;;14.50;99.90;;;;;;5028405;28;20057;-79
2021/08/12 03:33:38;;;;;;;6.15;4.63;;;14.50;99.90;;;;;;5016469;28;20053;-80
2021/08/12 03:36:06;;;;;;;5.38;4.70;;;14.60;99.90;;;;;;4989229;28;20046;-80
2021/08/12 03:38:34;;;;;;;7.97;5.80;;;14.50;99.90;;;;;;5006405;28;20061;-80
2021/08/12 03:41:04;;;;;;;5.35;3.95;;;14.50;99.90;;;;;;4992797;28;20046;-79
2021/08/12 03:43:33;;;;;;;6.93;5.00;;;14.50;99.90;;;;;;5009837;28;20053;-79
2021/08/12 03:46:00;;;;;;;8.95;6.32;;;14.50;99.90;;;;;;5010446;28;20826;-79
2021/08/12 03:48:28;;;;;;;5.78;5.25;;;14.50;99.90;;;;;;5008578;28;20049;-79
2021/08/12 03:50:56;;;;;;;5.63;4.47;;;14.50;99.90;;;;;;5008135;28;20056;-79
2021/08/12 03:53:24;;;;;;;5.00;3.97;;;14.50;99.90;;;;;;5010322;28;20054;-79
2021/08/12 03:55:58;;;;;;;4.85;4.28;;;14.40;99.90;;;;;;5009897;28;20050;-79
2021/08/12 03:58:27;;;;;;;6.57;4.22;;;14.30;99.90;;;;;;4992281;28;20053;-79
2021/08/12 04:00:55;;;;;;;6.30;4.75;;;14.20;99.90;;;;;;5009045;28;20042;-79
2021/08/12 04:03:24;;;;;;;6.55;4.53;;;14.20;99.90;;;;;;5007810;28;20042;-79
2021/08/12 04:05:52;;;;;;;12.55;9.35;;;14.20;99.90;;;;;;5009071;28;20041;-80
2021/08/12 04:08:21;;;;;;;6.28;4.38;;;14.20;99.90;;;;;;5008581;28;20487;-79
2021/08/12 04:10:51;;;;;;;6.35;4.55;;;14.30;99.90;;;;;;5008715;28;20407;-79
2021/08/12 04:13:24;;;;;;;7.65;4.60;;;14.30;99.90;;;;;;5008192;28;20050;-79
2021/08/12 04:15:52;;;;;;;4.28;3.88;;;14.30;99.90;;;;;;5008413;28;20046;-79
2021/08/12 04:18:21;;;;;;;4.78;3.25;;;14.20;99.90;;;;;;5013872;28;20049;-79
2021/08/12 04:20:49;;;;;;;4.45;4.05;;;14.10;99.90;;;;;;5010374;28;20510;-79
2021/08/12 04:23:17;;;;;;;5.15;4.05;;;14.00;99.90;;;;;;5027778;28;20052;-79
2021/08/12 04:25:46;;;;;;;5.72;5.22;;;14.00;99.90;;;;;;5028685;28;20478;-79
2021/08/12 04:28:14;;;;;;;6.00;5.32;;;14.10;99.90;;;;;;5027804;28;20048;-79
2021/08/12 04:30:42;;;;;;;6.95;5.20;;;14.10;99.90;;;;;;5011734;28;20053;-79
2021/08/12 04:33:10;;;;;;;11.10;5.85;;;14.20;99.90;;;;;;5027774;28;20057;-79
2021/08/12 04:35:38;;;;;;;8.85;6.25;;;14.30;99.90;;;;;;5027570;28;20053;-79
2021/08/12 04:38:07;;;;;;;10.52;6.65;;;14.40;99.90;;;;;;5031695;28;20057;-79
2021/08/12 04:40:35;;;;;;;8.60;4.95;;;14.50;99.90;;;;;;5031331;28;20057;-79
2021/08/12 04:43:04;;;;;;;6.72;4.90;;;14.50;99.90;;;;;;5012912;28;20053;-79
2021/08/12 04:45:31;;;;;;;5.93;4.47;;;14.60;99.90;;;;;;5013833;28;20066;-79
2021/08/12 04:48:01;;;;;;;5.00;4.60;;;14.70;99.90;;;;;;5012071;28;20045;-79
2021/08/12 04:50:34;;;;;;;5.20;4.70;;;14.60;99.90;;;;;;5012073;28;20057;-79
2021/08/12 04:53:05;;;;;;;9.90;5.97;;;14.50;99.90;;;;;;4980107;28;20786;-80
2021/08/12 04:55:34;;;;;;;5.95;5.20;;;14.40;99.90;;;;;;5011708;28;20061;-79
2021/08/12 04:58:04;;;;;;;8.48;5.47;;;14.50;99.90;;;;;;5007226;28;20046;-79
2021/08/12 05:00:33;;;;;;;6.25;5.10;;;14.70;99.90;;;;;;4991663;28;20042;-79
2021/08/12 05:03:02;;;;;;;11.55;5.50;;;14.80;99.90;;;;;;4991738;28;20058;-80
2021/08/12 05:05:30;;;;;;;8.60;5.70;;;15.00;99.90;;;;;;4992584;28;20050;-79
2021/08/12 05:07:58;;;;;;;7.28;6.57;;;15.10;99.90;;;;;;4993630;28;20042;-79
2021/08/12 05:10:27;;;;;;;7.95;5.80;;;15.30;99.90;;;;;;4992568;28;20472;-80
2021/08/12 05:12:56;;;;;;;8.82;5.70;;;15.40;99.90;;;;;;5010647;28;20778;-80
2021/08/12 05:15:24;;;;;;;5.88;5.28;;;15.50;99.90;;;;;;5011202;28;20038;-80
2021/08/12 05:17:52;;;;;;;4.80;4.28;;;15.50;99.90;;;;;;5013158;28;20061;-80
2021/08/12 05:20:20;;;;;;;6.60;4.72;;;15.50;99.90;;;;;;5030557;28;20049;-80
2021/08/12 05:22:48;;;;;;;6.05;4.90;;;15.60;99.90;;;;;;5031723;28;20049;-80
2021/08/12 05:25:16;;;;;;;5.97;5.38;;;15.80;99.90;;;;;;5031119;28;20041;-79
2021/08/12 05:27:44;;;;;;;9.23;5.57;;;15.90;99.90;;;;;;5031727;28;20052;-80
2021/08/12 05:30:13;;;;;;;6.88;5.78;;;16.10;99.90;;;;;;5031308;28;20052;-79
2021/08/12 05:32:41;;;;;;;12.98;5.82;;;16.20;99.90;;;;;;5029071;28;20491;-79
2021/08/12 05:35:10;;;;;;;6.72;4.93;;;16.40;99.90;;;;;;5011104;28;20053;-79
2021/08/12 05:37:38;;;;;;;9.45;5.88;;;16.60;99.90;;;;;;5011504;28;20463;-80
2021/08/12 05:40:06;;;;;;;9.07;6.40;;;16.80;99.90;;;;;;5011278;28;20042;-79
2021/08/12 05:42:34;;;;;;;9.10;6.30;;;16.90;99.90;;;;;;5011793;28;20045;-80
2021/08/12 05:45:03;;;;;;;9.25;5.88;;;17.00;99.90;;;;;;5010709;28;20057;-80
2021/08/12 05:47:35;;;;;;;27.13;7.13;;;17.10;99.90;;;;;;5010386;28;20042;-80
2021/08/12 05:50:04;;;;;;;6.13;5.53;;;17.30;99.90;;;;;;5009929;28;20187;-80
2021/08/12 05:52:34;;;;;;;8.88;6.18;;;17.40;99.90;;;;;;5010985;28;20088;-85
2021/08/12 05:55:03;;;;;;;7.70;5.07;;;17.50;99.90;;;;;;5011972;28;20061;-85
2021/08/12 05:57:31;;;;;;;9.27;6.50;;;17.70;99.90;;;;;;4995051;28;20517;-85
2021/08/12 05:59:58;;;;;;;7.43;6.20;;;17.80;99.90;;;;;;5010574;28;20054;-85
2021/08/12 06:02:28;;;;;;;8.48;6.05;;;18.00;99.90;;;;;;4995019;28;20057;-85
2021/08/12 06:04:58;;;;;;;7.40;6.25;;;17.90;99.90;;;;;;5027571;28;20564;-84
2021/08/12 06:07:27;;;;;;;7.70;5.63;;;18.10;99.90;;;;;;5013879;28;20052;-85
2021/08/12 06:09:54;;;;;;;7.60;5.57;;;18.20;99.90;;;;;;5030982;28;20478;-85
2021/08/12 06:12:22;;;;;;;9.50;7.35;;;18.40;99.90;;;;;;5015654;28;20081;-85
2021/08/12 06:14:50;;;;;;;8.80;6.07;;;18.60;99.90;;;;;;5011352;28;20497;-85
2021/08/12 06:17:20;;;;;;;15.43;7.82;;;18.80;99.90;;;;;;5010882;28;20487;-85
2021/08/12 06:19:57;;;;;;;7.35;5.72;;;19.10;99.90;;;;;;5028852;28;20486;-84
2021/08/12 06:22:25;;;;;;;7.17;5.50;;;19.10;99.90;;;;;;5030769;28;20040;-85
2021/08/12 06:24:52;;;;;;;6.68;4.80;;;19.40;99.90;;;;;;5013922;28;20626;-86
2021/08/12 06:27:20;;;;;;;8.13;6.18;;;19.50;99.90;;;;;;5029732;28;20042;-85
2021/08/12 06:29:48;;;;;;;9.88;7.40;;;19.70;99.90;;;;;;5030655;28;20044;-85
2021/08/12 06:32:16;;;;;;;7.72;5.72;;;19.90;99.90;;;;;;5030111;28;20073;-85
2021/08/12 06:34:45;;;;;;;7.35;4.45;;;20.10;99.90;;;;;;5031764;28;20053;-85
2021/08/12 06:37:13;;;;;;;12.13;6.10;;;20.40;99.90;;;;;;5029874;28;20064;-85
2021/08/12 06:39:41;;;;;;;7.50;6.80;;;20.60;99.90;;;;;;5031454;28;20045;-85
2021/08/12 06:42:09;;;;;;;10.05;6.65;;;20.60;99.90;;;;;;5018597;28;20054;-85
2021/08/12 06:44:55;;;;;;;7.45;6.68;;;20.50;99.90;;;;;;5009634;28;20042;-85
2021/08/12 06:47:22;;;;;;;8.68;6.82;;;20.50;99.90;;;;;;4994197;28;20049;-85
2021/08/12 06:49:53;;;;;;;9.25;6.18;;;20.70;99.90;;;;;;4993561;28;20065;-85
2021/08/12 06:52:22;;;;;;;7.75;5.10;;;20.70;99.90;;;;;;5010319;28;20069;-85
2021/08/12 06:54:50;;;;;;;8.70;7.55;;;20.80;99.90;;;;;;5010386;28;20041;-86
2021/08/12 06:57:18;;;;;;;9.02;6.65;;;20.90;99.90;;;;;;5009537;28;20046;-85
2021/08/12 06:59:45;;;;;;;12.50;7.13;;;20.90;99.90;;;;;;5006071;28;20042;-85
2021/08/12 07:02:13;;;;;;;7.65;5.95;;;21.00;99.90;;;;;;4991252;28;20048;-85
2021/08/12 07:04:43;;;;;;;8.10;6.15;;;21.10;99.90;;;;;;5006403;28;20053;-85
2021/08/12 07:07:11;;;;;;;6.30;5.68;;;21.20;99.90;;;;;;5006095;28;20049;-85
2021/08/12 07:09:38;;;;;;;8.20;7.20;;;21.40;99.90;;;;;;5007169;28;20396;-85
2021/08/12 07:12:07;;;;;;;7.13;6.30;;;21.90;99.90;;;;;;5008957;28;20046;-86
2021/08/12 07:14:35;;;;;;;10.85;5.22;;;22.20;99.90;;;;;;5010199;28;20045;-85
2021/08/12 07:17:04;;;;;;;7.22;6.47;;;22.20;99.90;;;;;;5009303;28;20046;-84
2021/08/12 07:19:33;;;;;;;10.55;7.25;;;22.20;99.90;;;;;;5024319;28;20060;-87
2021/08/12 07:22:01;;;;;;;11.70;6.82;;;22.40;99.90;;;;;;5030325;28;20045;-85
2021/08/12 07:24:29;;;;;;;9.32;5.50;;;22.80;99.90;;;;;;5028883;28;20409;-85
2021/08/12 07:26:57;;;;;;;7.75;5.32;;;22.70;99.90;;;;;;5027657;28;20049;-80
2021/08/12 07:29:25;;;;;;;7.63;5.93;;;22.60;99.90;;;;;;5029254;28;20053;-80
2021/08/12 07:31:54;;;;;;;9.82;6.05;;;22.60;99.90;;;;;;5029604;28;20048;-80
2021/08/12 07:34:27;;;;;;;6.43;5.82;;;22.60;99.90;;;;;;5013136;28;20045;-80
2021/08/12 07:36:55;;;;;;;8.02;7.22;;;22.60;99.90;;;;;;5008518;28;20053;-80
2021/08/12 07:39:23;;;;;;;6.65;5.78;;;22.50;99.90;;;;;;5010090;28;20053;-80
2021/08/12 07:41:50;;;;;;;10.90;6.10;;;22.50;99.90;;;;;;4989127;28;20404;-81
2021/08/12 07:44:18;;;;;;;8.65;7.13;;;22.50;99.90;;;;;;4989088;28;20045;-80
2021/08/12 07:46:46;;;;;;;7.50;6.82;;;22.50;99.90;;;;;;4973511;28;20054;-80
2021/08/12 07:49:14;;;;;;;7.57;6.88;;;22.80;99.90;;;;;;4987651;28;20049;-80
2021/08/12 07:51:41;;;;;;;11.43;6.35;;;23.00;99.90;;;;;;5007629;28;20053;-80
2021/08/12 07:54:09;;;;;;;8.15;6.40;;;22.90;99.90;;;;;;5010342;28;20053;-80
2021/08/12 07:56:37;;;;;;;6.28;5.68;;;22.70;99.90;;;;;;5009649;28;20552;-80
2021/08/12 07:59:05;;;;;;;9.57;7.90;;;22.70;99.90;;;;;;5009871;28;20054;-80
2021/08/12 08:01:32;;;;;;;6.95;6.35;;;22.70;99.90;;;;;;5008371;28;20045;-81
2021/08/12 08:04:02;;;;;;;9.43;7.80;;;22.70;99.90;;;;;;4992202;28;20049;-80
2021/08/12 08:06:29;;;;;;;8.15;7.38;;;22.60;99.90;;;;;;4976416;28;20483;-80
2021/08/12 08:08:57;;;;;;;7.03;6.30;;;22.70;99.90;;;;;;5008447;28;20057;-80
2021/08/12 08:11:25;;;;;;;9.40;7.07;;;22.70;99.90;;;;;;5007388;28;20415;-80
2021/08/12 08:13:53;;;;;;;8.43;6.95;;;22.40;99.90;;;;;;5008620;28;20049;-80
2021/08/12 08:16:22;;;;;;;8.85;6.05;;;22.30;99.90;;;;;;4991704;28;20060;-81
2021/08/12 08:18:51;;;;;;;8.65;6.15;;;22.50;99.90;;;;;;5001406;28;20780;-80
2021/08/12 08:21:18;;;;;;;8.32;5.82;;;22.80;99.90;;;;;;5027199;28;20048;-81
2021/08/12 08:23:46;;;;;;;6.75;5.95;;;22.90;99.90;;;;;;5027212;28;20056;-80
2021/08/12 08:26:14;;;;;;;6.88;6.18;;;23.10;99.90;;;;;;5012204;28;20073;-81
2021/08/12 08:28:42;;;;;;;11.10;6.45;;;23.20;99.90;;;;;;5027501;28;20041;-81
2021/08/12 08:31:10;;;;;;;7.85;6.32;;;23.10;99.90;;;;;;5016473;28;20061;-80
2021/08/12 08:33:38;;;;;;;7.32;6.63;;;23.20;99.90;;;;;;5008480;28;20414;-80
2021/08/12 08:36:06;;;;;;;8.25;6.28;;;23.40;99.90;;;;;;5007427;28;20038;-81
2021/08/12 08:38:34;;;;;;;23.02;7.95;;;23.40;99.90;;;;;;5008277;28;20065;-81
2021/08/12 08:41:02;;;;;;;9.30;7.22;;;23.40;99.90;;;;;;5009033;28;20050;-81
2021/08/12 08:43:32;;;;;;;12.75;6.93;;;23.50;99.90;;;;;;5007649;28;20045;-80
2021/08/12 08:46:02;;;;;;;8.07;5.75;;;23.30;99.90;;;;;;5007763;28;20054;-81
2021/08/12 08:48:33;;;;;;;7.40;6.45;;;23.40;99.90;;;;;;5008089;28;20061;-80
2021/08/12 08:51:02;;;;;;;14.27;6.90;;;23.40;99.90;;;;;;5008601;28;20479;-81
2021/08/12 08:53:31;;;;;;;6.53;5.30;;;23.40;99.90;;;;;;5009614;28;20038;-81
2021/08/12 08:55:59;;;;;;;9.20;6.28;;;23.20;99.90;;;;;;5009230;28;20057;-81
2021/08/12 08:58:28;;;;;;;7.68;6.30;;;23.10;99.90;;;;;;5009127;28;20046;-81
2021/08/12 09:00:56;;;;;;;7.88;6.72;;;23.00;99.90;;;;;;5007299;28;20042;-81
2021/08/12 09:03:24;;;;;;;8.38;6.55;;;22.90;99.90;;;;;;5007403;28;20046;-81
2021/08/12 09:05:53;;;;;;;7.18;5.35;;;23.20;99.90;;;;;;5007897;28;20049;-81
2021/08/12 09:08:20;;;;;;;8.20;7.35;;;23.50;99.90;;;;;;5007921;28;20078;-81
2021/08/12 09:10:49;;;;;;;9.10;6.70;;;23.70;99.90;;;;;;5007534;28;20476;-81
2021/08/12 09:13:23;;;;;;;7.30;6.60;;;23.90;99.90;;;;;;5007175;28;20064;-81
2021/08/12 09:16:05;;;;;;;11.63;6.40;;;24.00;99.90;;;;;;5007374;28;20041;-81
2021/08/12 09:18:32;;;;;;;7.93;5.75;;;24.10;99.90;;;;;;5015928;28;20406;-82
2021/08/12 09:21:19;;;;;;;9.98;6.00;;;24.10;99.90;;;;;;5027907;28;20045;-81
2021/08/12 09:23:56;;;;;;;11.57;6.40;;;23.90;99.90;;;;;;5029366;28;20053;-81
2021/08/12 09:26:25;;;;;;;8.88;6.90;;;23.90;99.90;;;;;;5032395;28;20061;-81
2021/08/12 09:28:54;;;;;;;8.13;5.78;;;24.00;99.90;;;;;;5031678;28;20049;-81
2021/08/12 09:31:26;;;;;;;6.57;5.95;;;24.00;99.90;;;;;;5030764;28;20037;-82
2021/08/12 09:33:55;;;;;;;10.05;7.13;;;24.10;99.90;;;;;;5008857;28;20046;-84
2021/08/12 09:36:34;;;;;;;7.28;6.45;;;24.20;99.90;;;;;;4991403;28;20076;-84
2021/08/12 09:39:23;;;;;;;8.15;6.60;;;24.10;99.90;;;;;;4993549;28;20073;-85
2021/08/12 09:41:53;;;;;;;;;;;24.10;99.90;;;;;;5000752;28;20521;-80
2021/08/12 09:44:34;;;;;;;6.85;5.53;;;23.90;99.90;;;;;;5012381;28;19926;-81
2021/08/12 09:47:25;;;;;;;21.45;6.03;;;23.90;99.90;;;;;;5010875;28;20050;-81
2021/08/12 09:49:54;;;;;;;6.28;5.22;;;24.10;99.90;;;;;;5007808;28;20050;-81
2021/08/12 09:52:29;;;;;;;10.82;5.97;;;24.10;99.90;;;;;;4990749;28;20058;-80
2021/08/12 09:55:11;;;;;;;7.03;6.32;;;24.20;99.90;;;;;;4992727;28;20050;-80
2021/08/12 09:57:47;;;;;;;14.30;7.50;;;24.40;99.90;;;;;;4992445;28;20053;-81
2021/08/12 10:00:21;;;;;;;5.82;5.20;;;24.40;99.90;;;;;;4995384;28;20064;-84
2021/08/12 10:02:48;;;;;;;6.90;5.35;;;24.50;99.90;;;;;;5010840;28;20061;-83
2021/08/12 10:05:17;;;;;;;10.85;6.10;;;24.60;99.90;;;;;;5011739;28;20486;-84
2021/08/12 10:07:50;;;;;;;7.85;5.63;;;24.90;99.90;;;;;;5011813;28;20410;-83
2021/08/12 10:10:21;;;;;;;6.97;5.55;;;24.90;99.90;;;;;;5012010;28;20046;-84
2021/08/12 10:12:57;;;;;;;7.60;6.53;;;25.00;99.90;;;;;;5011535;28;20054;-84
2021/08/12 10:15:30;;;;;;;7.80;6.68;;;25.20;99.90;;;;;;5011515;28;20392;-85
2021/08/12 10:18:01;;;;;;;12.57;6.72;;;25.20;99.90;;;;;;5012380;28;20050;-84
2021/08/12 10:20:30;;;;;;;;;;;25.10;99.90;;;;;;5030003;28;20053;-84
2021/08/12 10:23:02;;;;;;;7.40;5.85;;;25.20;99.90;;;;;;5031306;28;20289;-83
2021/08/12 10:25:34;;;;;;;9.18;5.43;;;25.20;99.90;;;;;;5030880;28;20414;-84
2021/08/12 10:28:05;;;;;;;6.32;5.60;;;25.10;99.90;;;;;;5030472;28;20450;-84
2021/08/12 10:30:35;;;;;;;7.03;6.32;;;25.20;99.90;;;;;;5031699;28;20053;-82
2021/08/12 10:33:05;;;;;;;7.25;6.05;;;25.20;99.90;;;;;;5031110;28;20053;-84
2021/08/12 10:35:35;;;;;;;11.55;5.82;;;25.20;99.90;;;;;;5012996;28;20048;-84
2021/08/12 10:38:04;;;;;;;10.33;5.20;;;25.20;99.90;;;;;;5031521;28;20053;-84
2021/08/12 10:40:34;;;;;;;6.95;5.85;;;25.20;99.90;;;;;;5029337;28;20061;-84
2021/08/12 10:43:03;;;;;;;6.25;5.22;;;25.20;99.90;;;;;;5010826;28;20589;-84
2021/08/12 10:45:31;;;;;;;13.23;5.93;;;25.20;99.90;;;;;;5010614;28;20045;-84
2021/08/12 10:48:00;;;;;;;7.43;6.40;;;24.90;99.90;;;;;;5011060;28;20503;-84
2021/08/12 10:50:37;;;;;;;8.93;5.53;;;24.90;99.90;;;;;;4993833;28;20045;-84
2021/08/12 10:53:09;;;;;;;8.57;6.63;;;25.00;99.90;;;;;;5009753;28;20065;-84
2021/08/12 10:55:42;;;;;;;7.43;5.00;;;25.10;99.90;;;;;;5010349;28;20060;-84
2021/08/12 10:58:18;;;;;;;8.50;7.47;;;25.30;99.90;;;;;;5009134;28;20052;-84
2021/08/12 11:00:47;;;;;;;12.68;6.55;;;25.40;99.90;;;;;;5015566;28;20064;-85
2021/08/12 11:03:15;;;;;;;7.72;6.88;;;25.50;99.90;;;;;;5010924;28;20487;-84
2021/08/12 11:06:17;;;;;;;9.98;6.70;;;25.40;99.90;;;;;;5011091;28;20057;-84
2021/08/12 11:08:48;;;;;;;13.27;6.78;;;25.40;99.90;;;;;;5009670;28;20685;-83
2021/08/12 11:11:36;;;;;;;7.90;6.60;;;25.50;99.90;;;;;;5008055;28;20042;-84
2021/08/12 11:14:10;;;;;;;8.43;5.40;;;25.40;99.90;;;;;;4991708;28;20073;-84
2021/08/12 11:16:40;;;;;;;8.63;6.88;;;25.50;99.90;;;;;;4991267;28;20043;-84
2021/08/12 11:19:29;;;;;;;6.35;5.15;;;25.60;99.90;;;;;;5013876;28;20049;-84
2021/08/12 11:21:59;;;;;;;6.50;5.40;;;25.60;99.90;;;;;;5028566;28;20052;-84
2021/08/12 11:24:27;;;;;;;6.45;5.03;;;25.70;99.90;;;;;;5028322;28;20402;-84
2021/08/12 11:26:57;;;;;;;8.63;6.28;;;25.70;99.90;;;;;;5028421;28;20054;-84
2021/08/12 11:29:30;;;;;;;9.88;5.45;;;25.80;99.90;;;;;;5030849;28;20053;-85
2021/08/12 11:32:08;;;;;;;15.98;5.82;;;25.80;99.90;;;;;;5028457;28;20049;-84
2021/08/12 11:34:45;;;;;;;6.75;5.80;;;25.90;99.90;;;;;;4995666;28;20431;-84
2021/08/12 11:37:35;;;;;;;10.38;6.30;;;26.00;99.90;;;;;;4990025;28;20049;-84
2021/08/12 11:40:11;;;;;;;11.18;6.47;;;26.00;99.90;;;;;;4990460;28;20049;-85
2021/08/12 11:42:44;;;;;;;5.80;5.30;;;26.00;99.90;;;;;;5004457;28;20057;-85
2021/08/12 11:45:18;;;;;;;5.85;5.22;;;26.10;99.90;;;;;;5008747;28;20054;-84
2021/08/12 11:47:57;;;;;;;7.60;6.20;;;26.00;99.90;;;;;;5000147;28;20049;-83
2021/08/12 11:50:28;;;;;;;5.80;5.18;;;26.10;99.90;;;;;;4990171;28;20057;-84
2021/08/12 11:52:56;;;;;;;5.03;4.47;;;26.00;99.10;;;;;;4990295;28;20073;-83
2021/08/12 11:55:24;;;;;;;14.43;4.72;;;26.10;99.90;;;;;;5008445;28;20052;-84
2021/08/12 11:57:53;;;;;;;5.63;5.05;;;26.20;99.90;;;;;;5010190;28;20081;-84
2021/08/12 12:00:30;;;;;;;7.28;5.38;;;26.20;99.90;;;;;;5008519;28;20046;-84
2021/08/12 12:03:00;;;;;;;7.97;5.15;;;26.30;99.90;;;;;;4992409;28;20053;-84
2021/08/12 12:05:37;;;;;;;7.80;5.35;;;26.30;99.90;;;;;;4992988;28;20053;-83
2021/08/12 12:08:08;;;;;;;6.68;5.97;;;26.30;99.60;;;;;;5009659;28;20077;-84
2021/08/12 12:10:40;;;;;;;5.18;4.65;;;26.40;99.90;;;;;;5008630;28;20054;-85
2021/08/12 12:13:11;;;;;;;8.45;5.18;;;26.40;99.90;;;;;;4991894;28;20045;-84
2021/08/12 12:15:51;;;;;;;8.23;5.35;;;26.50;99.90;;;;;;5009949;28;20056;-84
2021/08/12 12:18:57;;;;;;;7.40;4.85;;;26.60;99.90;;;;;;5022981;22;20395;-84
2021/08/12 12:22:37;;;;;;;7.15;5.03;;;26.80;99.90;;;;;;4920488;28;20065;-84
2021/08/12 12:27:44;;;;;;;;;;;;;;;;;;;;;
2021/08/12 12:32:07;;;;;;;8.70;6.10;;;26.90;99.90;;;;;;4855788;29;20772;-83
2021/08/12 12:35:08;;;;;;;5.80;4.95;;;26.90;99.90;;;;;;4866786;29;20052;-84
2021/08/12 12:39:11;;;;;;;9.27;5.97;;;27.00;99.90;;;;;;4869295;29;20044;-84
2021/08/12 12:43:38;;;;;;;6.78;5.43;;;27.20;99.90;;;;;;4980500;28;20049;-84
2021/08/12 12:52:48;;;;;;;;;;;;;;;;;;;;;
2021/08/12 12:57:28;;;;;;;7.82;5.40;;;26.80;99.90;;;;;;4955089;28;20093;-84
2021/08/12 13:08:54;;;;;;;6.07;5.47;;;26.80;99.90;;;;;;4961379;28;20038;-83
2021/08/12 13:13:35;;;;;;;;;;;;;;;;;;;;;
2021/08/12 13:18:08;;;;;;;11.10;5.90;;;27.20;99.90;;;;;;4924261;29;20420;-84
2021/08/12 13:31:30;;;;;;;21.45;6.43;;;27.50;99.90;;;;;;4804654;29;20054;-84
2021/08/12 13:34:59;;;;;;;8.13;5.93;;;27.30;99.90;;;;;;4899413;29;20060;-84
2021/08/12 13:42:57;;;;;;;9.18;4.75;;;27.70;99.90;;;;;;4883457;29;20154;-84
2021/08/12 13:51:28;;;;;;;;;;;;;;;;;;;;;
2021/08/12 13:54:50;;;;;;;8.70;6.60;;;27.70;99.90;;;;;;4903198;29;20048;-84
2021/08/12 13:57:52;;;;;;;6.07;5.40;;;27.60;99.90;;;;;;4915787;29;20044;-83
2021/08/12 14:00:24;;;;;;;6.73;5.47;;;27.60;99.90;;;;;;4947425;28;20057;-84
2021/08/12 14:02:52;;;;;;;6.35;5.45;;;27.70;99.90;;;;;;4941064;28;20059;-84
2021/08/12 14:05:21;;;;;;;5.22;4.78;;;27.40;99.90;;;;;;4970972;28;20051;-84